createdAt,value
2023-02-16T00:00:33.961Z,71.48
2023-02-16T00:03:00.762Z,71.20
2023-02-16T00:05:30.072Z,71.46
2023-02-16T00:07:58.411Z,71.38
2023-02-16T00:10:27.542Z,70.97
2023-02-16T00:13:13.253Z,70.54
2023-02-16T00:15:40.914Z,71.05
2023-02-16T00:18:17.812Z,71.01
2023-02-16T00:20:44.931Z,71.01
2023-02-16T00:23:11.831Z,70.92
2023-02-16T00:25:38.897Z,70.66
2023-02-16T00:28:12.426Z,71.86
2023-02-16T00:30:39.530Z,71.49
2023-02-16T00:33:19.090Z,71.38
2023-02-16T00:35:46.217Z,71.52
2023-02-16T00:38:15.078Z,71.68
2023-02-16T00:40:42.736Z,71.64
2023-02-16T00:43:27.835Z,71.61
2023-02-16T00:45:56.396Z,71.77
2023-02-16T00:48:24.678Z,71.60
2023-02-16T00:50:53.436Z,71.54
2023-02-16T00:53:20.280Z,71.75
2023-02-16T00:55:47.297Z,72.12
2023-02-16T00:58:23.738Z,71.65
2023-02-16T01:00:54.515Z,71.69
2023-02-16T01:03:25.252Z,72.48
2023-02-16T01:06:12.705Z,72.23
2023-02-16T01:08:57.761Z,71.88
2023-02-16T01:11:25.640Z,72.00
2023-02-16T01:13:54.141Z,72.49
2023-02-16T01:16:27.720Z,72.44
2023-02-16T01:18:54.522Z,71.84
2023-02-16T01:21:24.175Z,72.21
2023-02-16T01:23:52.582Z,72.65
2023-02-16T01:26:20.510Z,72.19
2023-02-16T01:28:48.235Z,72.39
2023-02-16T01:31:17.200Z,72.31
2023-02-16T01:33:44.344Z,72.74
2023-02-16T01:36:26.686Z,72.30
2023-02-16T01:38:53.512Z,72.83
2023-02-16T01:41:32.286Z,73.00
2023-02-16T01:44:04.729Z,72.70
2023-02-16T01:46:39.674Z,73.20
2023-02-16T01:49:13.250Z,72.93
2023-02-16T01:51:54.859Z,73.09
2023-02-16T01:54:44.052Z,73.23
2023-02-16T01:57:22.627Z,72.73
2023-02-16T01:59:49.360Z,73.19
2023-02-16T02:02:19.331Z,72.95
2023-02-16T02:05:12.332Z,73.01
2023-02-16T02:07:57.952Z,72.58
2023-02-16T02:10:54.501Z,73.64
2023-02-16T02:13:44.503Z,73.74
2023-02-16T02:16:12.312Z,73.91
2023-02-16T02:18:39.253Z,74.14
2023-02-16T02:21:43.994Z,73.99
2023-02-16T02:24:48.791Z,74.56
2023-02-16T02:27:25.684Z,74.42
2023-02-16T02:30:08.723Z,75.35
2023-02-16T02:33:00.489Z,75.13
2023-02-16T02:35:41.974Z,75.67
2023-02-16T02:38:21.865Z,76.00
2023-02-16T02:40:55.627Z,76.51
2023-02-16T02:43:38.582Z,77.34
2023-02-16T02:46:23.964Z,77.47
2023-02-16T02:48:51.393Z,78.04
2023-02-16T02:51:30.834Z,78.52
2023-02-16T02:54:25.397Z,79.65
2023-02-16T02:57:29.512Z,80.41
2023-02-16T03:00:20.734Z,79.50
2023-02-16T03:02:51.449Z,80.02
2023-02-16T03:05:20.588Z,80.15
2023-02-16T03:07:52.922Z,80.91
2023-02-16T03:10:45.869Z,80.76
2023-02-16T03:13:26.449Z,80.60
2023-02-16T03:15:55.924Z,80.75
2023-02-16T03:18:44.446Z,80.76
2023-02-16T03:21:33.094Z,80.35
2023-02-16T03:24:22.093Z,79.83
2023-02-16T03:27:09.455Z,79.75
2023-02-16T03:29:38.289Z,79.17
2023-02-16T03:32:05.909Z,80.15
2023-02-16T03:34:34.852Z,79.89
2023-02-16T03:37:02.682Z,79.34
2023-02-16T03:39:31.048Z,79.20
2023-02-16T03:41:58.505Z,79.47
2023-02-16T03:44:25.451Z,78.67
2023-02-16T03:46:52.640Z,78.56
2023-02-16T03:49:21.220Z,78.60
2023-02-16T03:51:48.157Z,78.27
2023-02-16T03:54:15.131Z,79.38
2023-02-16T03:56:42.004Z,79.98
2023-02-16T03:59:08.764Z,80.25
2023-02-16T04:01:35.561Z,81.12
2023-02-16T04:04:02.480Z,81.13
2023-02-16T04:06:29.366Z,81.62
2023-02-16T04:08:56.179Z,80.89
2023-02-16T04:11:41.497Z,81.05
2023-02-16T04:14:08.327Z,80.77
2023-02-16T04:16:35.219Z,81.01
2023-02-16T04:19:02.264Z,81.17
2023-02-16T04:21:29.182Z,81.49
2023-02-16T04:23:56.020Z,81.04
2023-02-16T04:26:22.875Z,81.41
2023-02-16T04:28:49.741Z,81.10
2023-02-16T04:31:16.810Z,81.18
2023-02-16T04:33:43.704Z,82.64
2023-02-16T04:36:10.534Z,82.27
2023-02-16T04:38:37.394Z,83.33
2023-02-16T04:41:04.611Z,83.29
2023-02-16T04:43:32.516Z,83.27
2023-02-16T04:45:59.693Z,83.73
2023-02-16T04:48:26.773Z,83.76
2023-02-16T04:50:53.647Z,83.62
2023-02-16T04:53:20.582Z,83.81
2023-02-16T04:55:48.795Z,84.39
2023-02-16T04:58:16.858Z,84.32
2023-02-16T05:00:43.893Z,84.08
2023-02-16T05:03:11.198Z,84.37
2023-02-16T05:05:38.052Z,84.52
2023-02-16T05:08:04.944Z,83.43
2023-02-16T05:10:31.718Z,84.27
2023-02-16T05:13:17.162Z,84.15
2023-02-16T05:15:45.044Z,84.13
2023-02-16T05:18:12.076Z,84.50
2023-02-16T05:20:57.270Z,85.00
2023-02-16T05:23:24.104Z,84.45
2023-02-16T05:25:51.011Z,84.62
2023-02-16T05:28:17.834Z,84.83
2023-02-16T05:30:44.854Z,85.17
2023-02-16T05:33:11.732Z,85.12
2023-02-16T05:35:38.490Z,85.29
2023-02-16T05:38:05.423Z,85.32
2023-02-16T05:40:32.426Z,85.63
2023-02-16T05:42:59.269Z,85.56
2023-02-16T05:45:26.236Z,85.10
2023-02-16T05:47:53.225Z,85.00
2023-02-16T05:50:20.224Z,84.54
2023-02-16T05:52:47.169Z,84.22
2023-02-16T05:55:14.414Z,84.66
2023-02-16T05:57:41.351Z,84.67
2023-02-16T06:00:09.080Z,84.47
2023-02-16T06:02:35.867Z,84.39
2023-02-16T06:05:02.705Z,84.43
2023-02-16T06:07:29.574Z,84.22
2023-02-16T06:09:56.436Z,82.97
2023-02-16T06:12:23.320Z,84.00
2023-02-16T06:14:50.215Z,84.04
2023-02-16T06:17:17.092Z,83.41
2023-02-16T06:19:43.970Z,83.87
2023-02-16T06:22:10.873Z,83.35
2023-02-16T06:24:38.364Z,83.46
2023-02-16T06:27:05.236Z,84.00
2023-02-16T06:29:32.189Z,84.11
2023-02-16T06:31:59.232Z,83.95
2023-02-16T06:34:26.337Z,84.24
2023-02-16T06:36:53.149Z,83.62
2023-02-16T06:39:20.061Z,83.36
2023-02-16T06:41:46.988Z,83.40
2023-02-16T06:44:16.558Z,84.16
2023-02-16T06:46:45.549Z,84.41
2023-02-16T06:49:18.287Z,84.34
2023-02-16T06:51:46.054Z,84.59
2023-02-16T06:54:13.070Z,84.22
2023-02-16T06:56:40.605Z,83.72
2023-02-16T06:59:08.026Z,84.09
2023-02-16T07:01:35.081Z,83.49
2023-02-16T07:04:02.052Z,83.75
2023-02-16T07:06:29.380Z,83.70
2023-02-16T07:08:56.507Z,83.34
2023-02-16T07:11:23.416Z,82.25
2023-02-16T07:13:50.852Z,83.56
2023-02-16T07:16:17.826Z,83.64
2023-02-16T07:18:46.115Z,84.43
2023-02-16T07:21:13.642Z,85.00
2023-02-16T07:23:40.717Z,84.49
2023-02-16T07:26:07.579Z,85.31
2023-02-16T07:28:34.537Z,84.75
2023-02-16T07:31:13.853Z,84.66
2023-02-16T07:33:41.409Z,84.33
2023-02-16T07:36:09.860Z,84.33
2023-02-16T07:38:37.377Z,84.33
2023-02-16T07:41:07.768Z,83.81
2023-02-16T07:43:39.123Z,83.21
2023-02-16T07:46:06.363Z,83.19
2023-02-16T07:48:33.420Z,82.58
2023-02-16T07:51:00.629Z,82.40
2023-02-16T07:53:27.994Z,81.71
2023-02-16T07:55:54.890Z,82.42
2023-02-16T07:58:28.101Z,82.94
2023-02-16T08:01:07.372Z,82.69
2023-02-16T08:03:34.183Z,82.97
2023-02-16T08:06:01.846Z,82.12
2023-02-16T08:08:28.709Z,81.69
2023-02-16T08:10:55.707Z,81.68
2023-02-16T08:13:22.766Z,81.79
2023-02-16T08:15:49.769Z,81.40
2023-02-16T08:18:16.537Z,80.73
2023-02-16T08:21:02.328Z,80.57
2023-02-16T08:23:30.284Z,81.23
2023-02-16T08:25:59.346Z,81.00
2023-02-16T08:28:28.569Z,81.33
2023-02-16T08:30:55.817Z,81.62
2023-02-16T08:33:25.892Z,80.68
2023-02-16T08:35:53.228Z,80.63
2023-02-16T08:38:20.793Z,80.99
2023-02-16T08:40:53.748Z,80.60
2023-02-16T08:43:20.767Z,80.29
2023-02-16T08:45:48.214Z,80.29
2023-02-16T08:48:16.786Z,80.58
2023-02-16T08:50:53.453Z,81.02
2023-02-16T08:53:23.563Z,81.51
2023-02-16T08:55:57.943Z,81.61
2023-02-16T08:58:24.831Z,82.71
2023-02-16T09:00:51.710Z,82.65
2023-02-16T09:03:19.710Z,83.32
2023-02-16T09:05:48.081Z,83.04
2023-02-16T09:08:15.900Z,82.72
2023-02-16T09:10:43.574Z,82.22
2023-02-16T09:13:14.255Z,82.59
2023-02-16T09:15:43.317Z,82.10
2023-02-16T09:18:12.668Z,82.09
2023-02-16T09:20:46.644Z,81.80
2023-02-16T09:23:13.969Z,81.57
2023-02-16T09:25:41.871Z,81.33
2023-02-16T09:28:11.545Z,81.00
2023-02-16T09:30:39.446Z,81.28
2023-02-16T09:33:06.623Z,81.16
2023-02-16T09:35:33.427Z,81.86
2023-02-16T09:38:00.211Z,81.81
2023-02-16T09:40:27.257Z,81.67
2023-02-16T09:43:13.381Z,81.58
2023-02-16T09:45:46.029Z,81.60
2023-02-16T09:48:24.530Z,81.90
2023-02-16T09:50:54.874Z,81.62
2023-02-16T09:53:30.477Z,81.54
2023-02-16T09:56:25.041Z,81.90
2023-02-16T09:59:02.187Z,81.71
2023-02-16T10:01:48.029Z,81.19
2023-02-16T10:04:23.875Z,81.09
2023-02-16T10:07:12.962Z,81.66
2023-02-16T10:09:44.957Z,82.22
2023-02-16T10:12:16.473Z,82.03
2023-02-16T10:15:15.065Z,82.20
2023-02-16T10:17:46.981Z,81.62
2023-02-16T10:20:23.760Z,81.82
2023-02-16T10:23:03.319Z,82.09
2023-02-16T10:25:35.838Z,82.60
2023-02-16T10:28:14.797Z,82.24
2023-02-16T10:30:56.483Z,82.75
2023-02-16T10:33:26.962Z,82.10
2023-02-16T10:35:58.608Z,81.93
2023-02-16T10:38:37.586Z,82.74
2023-02-16T10:41:35.209Z,81.79
2023-02-16T10:44:28.260Z,82.13
2023-02-16T10:46:59.985Z,82.15
2023-02-16T10:49:29.264Z,81.23
2023-02-16T10:51:57.228Z,81.35
2023-02-16T10:54:29.679Z,80.87
2023-02-16T10:57:01.138Z,81.42
2023-02-16T10:59:34.772Z,80.58
2023-02-16T11:02:04.535Z,81.44
2023-02-16T11:04:42.030Z,81.25
2023-02-16T11:07:12.065Z,80.53
2023-02-16T11:09:41.155Z,80.94
2023-02-16T11:12:25.791Z,81.81
2023-02-16T11:14:59.928Z,81.11
2023-02-16T11:17:27.843Z,81.12
2023-02-16T11:20:01.634Z,80.19
2023-02-16T11:22:38.151Z,80.31
2023-02-16T11:25:25.378Z,79.96
2023-02-16T11:28:01.993Z,80.17
2023-02-16T11:30:38.476Z,80.25
2023-02-16T11:33:23.803Z,79.15
2023-02-16T11:35:50.779Z,79.54
2023-02-16T11:38:29.549Z,79.95
2023-02-16T11:40:58.524Z,79.07
2023-02-16T11:43:32.352Z,78.28
2023-02-16T11:46:06.218Z,79.27
2023-02-16T11:48:34.257Z,78.88
2023-02-16T11:51:07.030Z,79.09
2023-02-16T11:53:37.123Z,79.29
2023-02-16T11:56:46.177Z,79.26
2023-02-16T11:59:23.368Z,79.68
2023-02-16T12:02:12.146Z,80.11
2023-02-16T12:05:00.735Z,79.40
2023-02-16T12:07:46.958Z,80.68
2023-02-16T12:10:26.666Z,81.00
2023-02-16T12:13:15.172Z,81.23
2023-02-16T12:15:49.680Z,81.81
2023-02-16T12:18:28.585Z,81.40
2023-02-16T12:21:14.468Z,81.25
2023-02-16T12:23:54.353Z,80.59
2023-02-16T12:26:42.795Z,80.14
2023-02-16T12:29:34.832Z,80.88
2023-02-16T12:32:31.512Z,81.08
2023-02-16T12:35:14.551Z,80.58
2023-02-16T12:37:41.470Z,80.63
2023-02-16T12:40:36.251Z,80.54
2023-02-16T12:43:06.598Z,81.01
2023-02-16T12:45:43.532Z,80.89
2023-02-16T12:48:20.317Z,80.94
2023-02-16T12:50:50.048Z,79.75
2023-02-16T12:53:55.416Z,79.75
2023-02-16T12:56:31.734Z,80.09
2023-02-16T12:59:16.740Z,80.00
2023-02-16T13:01:46.812Z,78.81
2023-02-16T13:04:36.725Z,79.54
2023-02-16T13:07:30.794Z,79.82
2023-02-16T13:10:19.259Z,80.38
2023-02-16T13:12:58.140Z,80.00
2023-02-16T13:15:39.094Z,81.10
2023-02-16T13:18:30.382Z,81.04
2023-02-16T13:21:08.229Z,79.96
2023-02-16T13:23:41.255Z,79.75
2023-02-16T13:26:26.670Z,80.67
2023-02-16T13:29:22.793Z,81.32
2023-02-16T13:31:56.846Z,81.12
2023-02-16T13:34:52.465Z,81.29
2023-02-16T13:37:41.208Z,81.01
2023-02-16T13:40:16.931Z,81.79
2023-02-16T13:43:05.260Z,81.50
2023-02-16T13:45:37.656Z,81.74
2023-02-16T13:48:14.977Z,81.17
2023-02-16T13:50:44.175Z,81.95
2023-02-16T13:53:19.488Z,81.77
2023-02-16T13:55:49.013Z,82.60
2023-02-16T13:58:29.058Z,82.29
2023-02-16T14:00:56.012Z,82.98
2023-02-16T14:03:22.779Z,82.96
2023-02-16T14:05:52.212Z,83.02
2023-02-16T14:08:23.567Z,83.39
2023-02-16T14:10:53.479Z,82.68
2023-02-16T14:13:27.531Z,82.62
2023-02-16T14:15:57.543Z,82.79
2023-02-16T14:18:32.759Z,83.64
2023-02-16T14:21:05.063Z,83.19
2023-02-16T14:23:37.121Z,83.32
2023-02-16T14:26:06.421Z,83.69
2023-02-16T14:28:33.804Z,84.07
2023-02-16T14:31:12.461Z,83.41
2023-02-16T14:33:54.173Z,83.31
2023-02-16T14:36:26.278Z,83.03
2023-02-16T14:38:58.360Z,83.18
2023-02-16T14:41:36.873Z,83.53
2023-02-16T14:44:06.625Z,83.15
2023-02-16T14:46:48.688Z,82.93
2023-02-16T14:50:03.592Z,82.03
2023-02-16T14:52:53.835Z,82.71
2023-02-16T14:55:53.260Z,82.53
2023-02-16T14:58:39.360Z,81.47
2023-02-16T15:01:12.744Z,81.58
2023-02-16T15:03:45.303Z,81.54
2023-02-16T15:06:36.444Z,81.92
2023-02-16T15:09:13.413Z,81.63
2023-02-16T15:12:11.670Z,81.39
2023-02-16T15:14:45.197Z,81.38
2023-02-16T15:17:20.424Z,81.00
2023-02-16T15:19:48.215Z,80.07
2023-02-16T15:22:22.143Z,81.02
2023-02-16T15:25:16.872Z,80.12
2023-02-16T15:27:53.366Z,80.00
2023-02-16T15:30:29.871Z,79.84
2023-02-16T15:33:13.168Z,79.98
2023-02-16T15:35:42.711Z,79.97
2023-02-16T15:38:12.775Z,79.95
2023-02-16T15:40:40.092Z,79.28
2023-02-16T15:43:32.721Z,79.31
2023-02-16T15:46:03.209Z,79.25
2023-02-16T15:48:38.239Z,79.13
2023-02-16T15:51:08.024Z,78.90
2023-02-16T15:53:39.241Z,78.91
2023-02-16T15:56:23.784Z,79.49
2023-02-16T15:58:54.284Z,79.57
2023-02-16T16:01:31.620Z,79.44
2023-02-16T16:04:23.322Z,79.07
2023-02-16T16:06:51.613Z,78.58
2023-02-16T16:09:32.864Z,79.21
2023-02-16T16:12:04.052Z,79.15
2023-02-16T16:14:33.896Z,78.27
2023-02-16T16:17:04.181Z,78.68
2023-02-16T16:19:36.938Z,79.08
2023-02-16T16:22:16.436Z,78.75
2023-02-16T16:24:47.758Z,78.83
2023-02-16T16:27:15.166Z,77.81
2023-02-16T16:29:47.986Z,78.36
2023-02-16T16:32:22.136Z,77.94
2023-02-16T16:34:52.704Z,78.42
2023-02-16T16:37:31.497Z,78.35
2023-02-16T16:40:08.303Z,78.54
2023-02-16T16:42:39.348Z,77.71
2023-02-16T16:45:52.787Z,77.36
2023-02-16T16:48:36.433Z,77.59
2023-02-16T16:51:13.805Z,77.63
2023-02-16T16:54:21.942Z,78.22
2023-02-16T16:56:48.773Z,78.01
2023-02-16T16:59:16.692Z,77.47
2023-02-16T17:01:46.041Z,76.89
2023-02-16T17:04:12.822Z,77.03
2023-02-16T17:06:39.691Z,77.52
2023-02-16T17:09:06.545Z,77.34
2023-02-16T17:11:36.548Z,77.18
2023-02-16T17:14:18.757Z,76.97
2023-02-16T17:16:53.037Z,76.71
2023-02-16T17:19:22.106Z,77.07
2023-02-16T17:21:49.158Z,76.98
2023-02-16T17:24:16.447Z,77.78
2023-02-16T17:26:43.239Z,76.95
2023-02-16T17:29:10.279Z,76.78
2023-02-16T17:31:37.109Z,76.70
2023-02-16T17:34:04.459Z,76.70
2023-02-16T17:36:31.309Z,76.30
2023-02-16T17:38:58.160Z,76.22
2023-02-16T17:41:28.144Z,76.00
2023-02-16T17:43:56.005Z,76.58
2023-02-16T17:46:23.307Z,76.18
2023-02-16T17:48:53.553Z,76.72
2023-02-16T17:51:22.260Z,76.08
2023-02-16T17:53:49.463Z,75.95
2023-02-16T17:56:20.292Z,76.14
2023-02-16T17:58:47.052Z,76.29
2023-02-16T18:01:15.567Z,75.72
2023-02-16T18:03:42.446Z,75.78
2023-02-16T18:06:14.805Z,75.40
2023-02-16T18:08:42.388Z,76.08
2023-02-16T18:11:11.840Z,75.62
2023-02-16T18:13:39.709Z,75.28
2023-02-16T18:16:08.236Z,75.24
2023-02-16T18:18:36.836Z,74.93
2023-02-16T18:21:05.320Z,74.95
2023-02-16T18:23:32.517Z,75.33
2023-02-16T18:25:59.311Z,75.07
2023-02-16T18:28:29.223Z,75.21
2023-02-16T18:31:16.773Z,75.54
2023-02-16T18:34:51.091Z,75.23
2023-02-16T18:37:33.590Z,75.09
2023-02-16T18:40:00.959Z,75.17
2023-02-16T18:42:28.206Z,75.07
2023-02-16T18:44:56.726Z,74.87
2023-02-16T18:47:27.810Z,74.76
2023-02-16T18:49:56.458Z,74.85
2023-02-16T18:52:24.146Z,74.86
2023-02-16T18:54:51.489Z,74.36
2023-02-16T18:57:20.497Z,74.91
2023-02-16T18:59:48.524Z,74.93
2023-02-16T19:02:16.482Z,74.91
2023-02-16T19:04:44.197Z,74.97
2023-02-16T19:07:13.801Z,74.52
2023-02-16T19:09:40.660Z,75.16
2023-02-16T19:12:07.736Z,74.80
2023-02-16T19:14:38.210Z,74.94
2023-02-16T19:17:08.014Z,74.34
2023-02-16T19:19:45.222Z,74.47
2023-02-16T19:22:15.148Z,74.77
2023-02-16T19:24:42.558Z,74.79
2023-02-16T19:27:10.550Z,74.67
2023-02-16T19:29:42.410Z,74.02
2023-02-16T19:32:09.572Z,74.13
2023-02-16T19:34:37.188Z,74.44
2023-02-16T19:37:05.970Z,74.61
2023-02-16T19:39:33.775Z,74.55
2023-02-16T19:42:00.846Z,74.59
2023-02-16T19:44:30.693Z,74.07
2023-02-16T19:46:57.771Z,73.81
2023-02-16T19:49:24.942Z,73.87
2023-02-16T19:51:52.516Z,74.41
2023-02-16T19:54:19.385Z,74.12
2023-02-16T19:56:46.130Z,73.82
2023-02-16T19:59:12.971Z,73.23
2023-02-16T20:01:40.338Z,73.77
2023-02-16T20:04:07.177Z,73.51
2023-02-16T20:06:40.462Z,73.37
2023-02-16T20:09:08.980Z,73.56
2023-02-16T20:11:38.310Z,74.11
2023-02-16T20:14:05.567Z,73.67
2023-02-16T20:16:32.702Z,74.23
2023-02-16T20:19:00.508Z,74.21
2023-02-16T20:21:29.134Z,73.84
2023-02-16T20:23:59.760Z,74.01
2023-02-16T20:26:34.315Z,74.33
2023-02-16T20:29:02.395Z,73.85
2023-02-16T20:31:50.675Z,73.05
2023-02-16T20:34:18.004Z,72.96
2023-02-16T20:36:45.387Z,73.45
2023-02-16T20:39:12.302Z,73.69
2023-02-16T20:41:39.581Z,73.01
2023-02-16T20:44:06.833Z,73.72
2023-02-16T20:46:34.147Z,73.14
2023-02-16T20:49:01.315Z,73.53
2023-02-16T20:51:32.511Z,73.07
2023-02-16T20:54:04.227Z,73.59
2023-02-16T20:56:31.652Z,73.61
2023-02-16T20:58:59.473Z,73.50
2023-02-16T21:01:30.911Z,73.46
2023-02-16T21:03:59.872Z,73.74
2023-02-16T21:06:28.504Z,73.52
2023-02-16T21:08:55.976Z,73.11
2023-02-16T21:11:23.306Z,73.65
2023-02-16T21:13:50.154Z,73.31
2023-02-16T21:16:17.589Z,72.93
2023-02-16T21:18:44.769Z,72.91
2023-02-16T21:21:20.960Z,72.91
2023-02-16T21:23:50.258Z,73.15
2023-02-16T21:26:18.848Z,74.13
2023-02-16T21:28:45.815Z,73.79
2023-02-16T21:31:16.874Z,73.61
2023-02-16T21:33:44.095Z,74.46
2023-02-16T21:36:14.760Z,74.69
2023-02-16T21:38:43.083Z,74.53
2023-02-16T21:41:25.692Z,75.19
2023-02-16T21:44:03.074Z,74.79
2023-02-16T21:46:38.852Z,74.99
2023-02-16T21:49:08.601Z,75.06
2023-02-16T21:51:38.445Z,75.06
2023-02-16T21:54:07.340Z,75.02
2023-02-16T21:56:38.036Z,74.78
2023-02-16T21:59:11.666Z,74.84
2023-02-16T22:01:42.702Z,75.27
2023-02-16T22:04:15.549Z,75.57
2023-02-16T22:06:44.688Z,75.17
2023-02-16T22:09:15.111Z,75.28
2023-02-16T22:11:42.336Z,75.55
2023-02-16T22:14:09.635Z,75.58
2023-02-16T22:16:38.022Z,75.66
2023-02-16T22:19:08.501Z,76.05
2023-02-16T22:21:36.813Z,76.10
2023-02-16T22:24:04.426Z,76.70
2023-02-16T22:26:33.390Z,76.54
2023-02-16T22:29:02.214Z,76.48
2023-02-16T22:31:29.334Z,77.34
2023-02-16T22:33:58.386Z,76.39
2023-02-16T22:36:25.971Z,76.31
2023-02-16T22:38:53.784Z,76.54
2023-02-16T22:41:21.863Z,75.97
2023-02-16T22:43:52.941Z,76.02
2023-02-16T22:46:20.193Z,75.92
2023-02-16T22:48:47.327Z,75.52
2023-02-16T22:51:16.335Z,75.53
2023-02-16T22:53:43.884Z,75.09
2023-02-16T22:56:14.146Z,75.67
2023-02-16T22:58:40.965Z,75.95
2023-02-16T23:01:13.217Z,76.38
2023-02-16T23:03:40.193Z,76.78
2023-02-16T23:06:19.279Z,76.84
2023-02-16T23:08:51.006Z,77.14
2023-02-16T23:11:17.902Z,77.13
2023-02-16T23:13:44.792Z,76.57
2023-02-16T23:16:14.069Z,77.01
2023-02-16T23:18:41.777Z,76.75
2023-02-16T23:21:09.570Z,77.20
2023-02-16T23:23:36.785Z,76.79
2023-02-16T23:26:06.532Z,77.20
2023-02-16T23:28:35.524Z,76.63
2023-02-16T23:31:02.646Z,76.78
2023-02-16T23:33:29.899Z,77.01
2023-02-16T23:35:56.630Z,77.42
2023-02-16T23:38:23.509Z,76.80
2023-02-16T23:41:01.181Z,76.99
2023-02-16T23:43:28.009Z,76.95
2023-02-16T23:45:55.363Z,76.65
2023-02-16T23:48:23.007Z,76.19
2023-02-16T23:50:51.537Z,76.57
2023-02-16T23:53:20.936Z,76.34
2023-02-16T23:56:05.268Z,76.54
2023-02-16T23:58:36.617Z,76.40
